Time;durP1;ratioP1;P1;durP2;ratioP2;P2;SDS_P1;SDS_P2;PMS_P1;PMS_P2;Temp;Humidity;BMP_temperature;BMP_pressure;BME280_temperature;BME280_humidity;BME280_pressure;Samples;Min_cycle;Max_cycle;Signal;HPM_P1;HPM_P2
2024/01/05 00:00:43;;;;;;;6.95;1.30;;;4.90;99.90;;;;;;5019607;28;20121;-66
2024/01/05 00:03:09;;;;;;;7.00;1.30;;;4.90;99.90;;;;;;5019879;28;20034;-66
2024/01/05 00:05:35;;;;;;;7.85;1.20;;;5.00;99.90;;;;;;5018830;28;20041;-67
2024/01/05 00:08:01;;;;;;;15.60;2.55;;;5.00;99.90;;;;;;5021930;28;20056;-66
2024/01/05 00:10:27;;;;;;;3.95;1.67;;;5.00;99.90;;;;;;5017994;28;20115;-66
2024/01/05 00:12:52;;;;;;;8.23;1.90;;;5.00;99.90;;;;;;5019860;28;20454;-67
2024/01/05 00:15:18;;;;;;;4.60;1.45;;;5.00;99.90;;;;;;5021672;28;20037;-66
2024/01/05 00:17:44;;;;;;;4.28;1.27;;;5.00;99.90;;;;;;5021628;28;20022;-66
2024/01/05 00:20:10;;;;;;;6.80;1.40;;;5.00;99.90;;;;;;5018928;28;20048;-65
2024/01/05 00:22:36;;;;;;;8.50;1.55;;;5.00;99.90;;;;;;5015910;28;20579;-66
2024/01/05 00:25:03;;;;;;;4.00;1.52;;;5.00;99.90;;;;;;5018744;28;20045;-66
2024/01/05 00:27:29;;;;;;;3.58;1.70;;;5.00;99.90;;;;;;5021872;28;20078;-66
2024/01/05 00:29:54;;;;;;;5.10;1.30;;;5.00;99.90;;;;;;5018566;28;20160;-66
2024/01/05 00:32:20;;;;;;;5.85;1.90;;;5.00;99.90;;;;;;5018868;28;20044;-66
2024/01/05 00:34:46;;;;;;;3.40;1.40;;;5.00;99.90;;;;;;5016614;28;20037;-67
2024/01/05 00:37:12;;;;;;;6.88;1.98;;;5.00;99.90;;;;;;5019821;28;20040;-67
2024/01/05 00:39:37;;;;;;;8.18;1.95;;;5.00;99.90;;;;;;5019232;28;20123;-65
2024/01/05 00:42:04;;;;;;;5.25;1.98;;;4.90;99.90;;;;;;5017347;28;20483;-65
2024/01/05 00:44:30;;;;;;;5.40;1.70;;;4.90;99.90;;;;;;5020244;28;20033;-66
2024/01/05 00:46:55;;;;;;;7.43;1.90;;;4.90;99.90;;;;;;5017093;28;20030;-66
2024/01/05 00:49:21;;;;;;;4.35;1.50;;;4.90;99.90;;;;;;5019343;28;20028;-67
2024/01/05 00:51:46;;;;;;;3.72;2.55;;;4.90;99.90;;;;;;5020120;28;20022;-66
2024/01/05 00:54:12;;;;;;;6.88;2.03;;;4.90;99.90;;;;;;5015896;28;20037;-67
2024/01/05 00:56:38;;;;;;;7.60;3.10;;;5.00;99.90;;;;;;5018192;28;20076;-66
2024/01/05 00:59:05;;;;;;;5.55;1.63;;;5.00;99.90;;;;;;5020445;28;20397;-66
2024/01/05 01:01:31;;;;;;;4.43;1.83;;;5.00;99.90;;;;;;5017844;28;20405;-67
2024/01/05 01:03:56;;;;;;;8.27;2.25;;;5.00;99.90;;;;;;5018550;28;20030;-66
2024/01/05 01:06:22;;;;;;;9.10;1.80;;;5.00;99.90;;;;;;5020387;28;20026;-65
2024/01/05 01:08:48;;;;;;;6.32;1.60;;;5.00;99.90;;;;;;5020344;28;20041;-67
2024/01/05 01:11:14;;;;;;;5.40;1.85;;;5.00;99.90;;;;;;5015523;28;20026;-67
2024/01/05 01:13:41;;;;;;;7.38;3.08;;;4.90;99.90;;;;;;5021212;28;20022;-66
2024/01/05 01:16:07;;;;;;;6.57;1.75;;;4.90;99.90;;;;;;5018379;28;20030;-66
2024/01/05 01:18:33;;;;;;;7.78;2.08;;;4.80;99.90;;;;;;5014600;28;20029;-67
2024/01/05 01:20:58;;;;;;;8.32;2.25;;;4.70;99.90;;;;;;5017813;28;20026;-64
2024/01/05 01:23:24;;;;;;;9.50;2.72;;;4.70;99.90;;;;;;5023133;28;20018;-67
2024/01/05 01:25:50;;;;;;;8.35;2.40;;;4.60;99.90;;;;;;5016646;28;20029;-66
2024/01/05 01:28:15;;;;;;;6.90;2.05;;;4.60;99.90;;;;;;5022058;28;20047;-66
2024/01/05 01:30:41;;;;;;;11.48;1.67;;;4.50;99.90;;;;;;5019325;28;20068;-65
2024/01/05 01:33:07;;;;;;;5.25;1.75;;;4.50;99.90;;;;;;5017755;28;20030;-67
2024/01/05 01:35:32;;;;;;;6.97;1.80;;;4.60;99.90;;;;;;5019755;28;20057;-64
2024/01/05 01:37:58;;;;;;;6.40;2.00;;;4.60;99.90;;;;;;5018361;28;20022;-66
2024/01/05 01:40:24;;;;;;;5.13;2.38;;;4.70;99.90;;;;;;5019099;28;20076;-66
2024/01/05 01:42:50;;;;;;;15.48;3.67;;;4.80;99.90;;;;;;5022081;28;20022;-66
2024/01/05 01:45:16;;;;;;;12.52;2.67;;;4.80;99.90;;;;;;5019442;28;20030;-66
2024/01/05 01:47:43;;;;;;;7.63;2.33;;;4.90;99.90;;;;;;5019797;28;20145;-67
2024/01/05 01:50:09;;;;;;;10.25;2.83;;;4.90;99.90;;;;;;5025411;28;20033;-64
2024/01/05 01:52:38;;;;;;;19.15;4.05;;;5.00;99.90;;;;;;5023257;28;20108;-66
2024/01/05 01:55:04;;;;;;;4.63;1.63;;;5.00;99.90;;;;;;5024173;28;20486;-66
2024/01/05 01:57:31;;;;;;;5.65;1.40;;;5.00;99.90;;;;;;5024706;28;20026;-65
2024/01/05 01:59:56;;;;;;;5.55;1.50;;;5.10;99.90;;;;;;5022821;28;20033;-67
2024/01/05 02:02:23;;;;;;;4.30;1.73;;;5.10;99.90;;;;;;5023854;28;20136;-66
2024/01/05 02:04:50;;;;;;;5.05;1.58;;;5.10;99.90;;;;;;5022690;28;20508;-67
2024/01/05 02:07:16;;;;;;;5.07;1.75;;;5.10;99.90;;;;;;5021514;28;20213;-66
2024/01/05 02:09:42;;;;;;;4.78;1.40;;;5.10;99.90;;;;;;5021978;28;20037;-66
2024/01/05 02:12:08;;;;;;;6.20;1.83;;;5.20;99.90;;;;;;5023449;28;20397;-66
2024/01/05 02:14:34;;;;;;;4.80;1.77;;;5.20;99.90;;;;;;5023899;28;20121;-67
2024/01/05 02:16:59;;;;;;;15.90;2.88;;;5.20;99.90;;;;;;5022083;28;20483;-66
2024/01/05 02:19:25;;;;;;;6.20;1.60;;;5.20;99.90;;;;;;5022307;28;20525;-67
2024/01/05 02:21:54;;;;;;;6.65;1.98;;;5.20;99.90;;;;;;5022201;28;20498;-67
2024/01/05 02:24:20;;;;;;;4.80;1.85;;;5.20;99.90;;;;;;5022050;28;20030;-66
2024/01/05 02:26:46;;;;;;;7.50;1.50;;;5.10;99.90;;;;;;5022964;28;20412;-65
2024/01/05 02:29:13;;;;;;;8.52;1.75;;;5.10;99.90;;;;;;5022856;28;20038;-66
2024/01/05 02:31:39;;;;;;;13.57;2.83;;;5.10;99.90;;;;;;5023401;28;20385;-67
2024/01/05 02:34:05;;;;;;;6.03;1.77;;;5.10;99.90;;;;;;5022416;28;20021;-65
2024/01/05 02:36:31;;;;;;;14.85;2.17;;;5.00;99.90;;;;;;5022540;28;20638;-65
2024/01/05 02:38:56;;;;;;;8.05;1.65;;;5.00;99.90;;;;;;5023740;28;20030;-67
2024/01/05 02:41:22;;;;;;;8.13;1.25;;;5.00;99.90;;;;;;5021525;28;20029;-65
2024/01/05 02:43:48;;;;;;;8.98;1.60;;;5.00;99.90;;;;;;5020458;28;20033;-67
2024/01/05 02:46:13;;;;;;;8.02;2.10;;;5.00;99.90;;;;;;5022480;28;20029;-65
2024/01/05 02:48:39;;;;;;;7.10;1.75;;;5.00;99.90;;;;;;5021053;28;20046;-65
2024/01/05 02:51:04;;;;;;;6.20;1.63;;;5.00;99.90;;;;;;5022536;28;20022;-66
2024/01/05 02:53:30;;;;;;;9.70;2.55;;;4.90;99.90;;;;;;5022732;28;20178;-67
2024/01/05 02:55:56;;;;;;;12.77;3.28;;;4.90;99.90;;;;;;5018021;28;20037;-67
2024/01/05 02:58:21;;;;;;;5.47;1.85;;;4.90;99.90;;;;;;5004989;28;20030;-65
2024/01/05 03:00:47;;;;;;;5.65;1.70;;;4.90;99.90;;;;;;5020887;28;20038;-67
2024/01/05 03:03:13;;;;;;;5.85;1.60;;;4.90;99.90;;;;;;5021006;28;20030;-66
2024/01/05 03:05:38;;;;;;;3.20;1.50;;;4.90;99.90;;;;;;5017737;28;20391;-67
2024/01/05 03:08:04;;;;;;;4.85;1.70;;;4.90;99.90;;;;;;5019833;28;20025;-64
2024/01/05 03:10:30;;;;;;;5.15;1.73;;;4.80;99.90;;;;;;5021366;28;20018;-64
2024/01/05 03:12:56;;;;;;;11.40;2.55;;;4.80;99.90;;;;;;5021270;28;20533;-66
2024/01/05 03:15:21;;;;;;;7.50;1.98;;;4.80;99.90;;;;;;5022587;28;20387;-67
2024/01/05 03:17:47;;;;;;;5.35;1.92;;;4.70;99.90;;;;;;5017268;28;20022;-67
2024/01/05 03:20:16;;;;;;;4.53;3.38;;;4.70;99.90;;;;;;5022653;28;20112;-66
2024/01/05 03:22:41;;;;;;;6.65;1.98;;;4.70;99.90;;;;;;5023699;28;20101;-65
2024/01/05 03:25:07;;;;;;;6.97;1.77;;;4.60;99.90;;;;;;5023406;28;20204;-67
2024/01/05 03:27:33;;;;;;;9.70;2.20;;;4.60;99.90;;;;;;5019388;28;20035;-66
2024/01/05 03:29:59;;;;;;;4.57;2.00;;;4.60;99.90;;;;;;5020003;28;20034;-65
2024/01/05 03:32:24;;;;;;;5.53;1.83;;;4.60;99.90;;;;;;5020477;28;20021;-65
2024/01/05 03:34:50;;;;;;;6.13;2.03;;;4.60;99.90;;;;;;5023487;28;20083;-66
2024/01/05 03:37:16;;;;;;;10.48;2.25;;;4.50;99.90;;;;;;5023374;28;20109;-65
2024/01/05 03:39:41;;;;;;;5.95;2.75;;;4.50;99.90;;;;;;5018599;28;20033;-66
2024/01/05 03:42:07;;;;;;;4.60;2.10;;;4.50;99.90;;;;;;5018347;28;20096;-65
2024/01/05 03:44:32;;;;;;;7.07;2.58;;;4.50;99.90;;;;;;5017753;28;20052;-66
2024/01/05 03:46:58;;;;;;;5.45;1.55;;;4.60;99.90;;;;;;5019799;28;20113;-67
2024/01/05 03:49:23;;;;;;;5.45;2.53;;;4.60;99.90;;;;;;5021522;28;20017;-65
2024/01/05 03:51:49;;;;;;;6.82;1.88;;;4.60;99.90;;;;;;5022786;28;20117;-66
2024/01/05 03:54:15;;;;;;;4.07;1.88;;;4.60;99.90;;;;;;5021931;28;20112;-66
2024/01/05 03:56:47;;;;;;;10.02;2.67;;;4.60;99.90;;;;;;5020299;28;20049;-66
2024/01/05 03:59:14;;;;;;;3.90;2.08;;;4.60;99.90;;;;;;5020034;28;20064;-65
2024/01/05 04:01:43;;;;;;;5.07;1.95;;;4.50;99.90;;;;;;5023319;28;20502;-66
2024/01/05 04:04:09;;;;;;;4.07;2.17;;;4.50;99.90;;;;;;5020270;28;20482;-64
2024/01/05 04:06:35;;;;;;;10.43;3.08;;;4.50;99.90;;;;;;5020469;28;20061;-66
2024/01/05 04:09:01;;;;;;;5.93;2.35;;;4.40;99.90;;;;;;5018886;28;20033;-67
2024/01/05 04:11:30;;;;;;;10.90;2.58;;;4.40;99.90;;;;;;5017371;28;20112;-65
2024/01/05 04:13:55;;;;;;;7.60;2.10;;;4.40;99.90;;;;;;5017862;28;20117;-67
2024/01/05 04:16:21;;;;;;;10.40;3.95;;;4.40;99.90;;;;;;5021191;28;20129;-65
2024/01/05 04:18:47;;;;;;;5.50;2.38;;;4.30;99.90;;;;;;5017147;28;20545;-66
2024/01/05 04:21:13;;;;;;;6.28;2.15;;;4.20;99.90;;;;;;5022975;28;20034;-65
2024/01/05 04:23:40;;;;;;;14.05;2.75;;;4.20;99.90;;;;;;5019207;28;20030;-66
2024/01/05 04:26:06;;;;;;;4.22;2.65;;;4.20;99.90;;;;;;5018869;28;20455;-65
2024/01/05 04:28:32;;;;;;;6.28;2.75;;;4.10;99.90;;;;;;5021293;28;20048;-66
2024/01/05 04:30:57;;;;;;;6.97;2.65;;;4.10;99.90;;;;;;5020413;28;20116;-67
2024/01/05 04:33:23;;;;;;;7.28;2.83;;;4.10;99.90;;;;;;5016519;28;20025;-67
2024/01/05 04:35:48;;;;;;;6.30;2.72;;;4.10;99.90;;;;;;5020265;28;20056;-65
2024/01/05 04:38:14;;;;;;;6.80;2.78;;;4.00;99.90;;;;;;5020313;28;20092;-66
2024/01/05 04:40:40;;;;;;;3.80;2.38;;;4.00;99.90;;;;;;5019492;28;20021;-66
2024/01/05 04:43:05;;;;;;;7.65;3.25;;;3.90;99.90;;;;;;5022894;28;20037;-66
2024/01/05 04:45:31;;;;;;;6.20;2.55;;;3.90;99.90;;;;;;5019637;28;20107;-65
2024/01/05 04:47:56;;;;;;;7.07;4.35;;;3.90;99.90;;;;;;5019035;28;20038;-65
2024/01/05 04:50:22;;;;;;;12.70;3.50;;;3.80;99.90;;;;;;5020283;28;20044;-64
2024/01/05 04:52:48;;;;;;;6.20;2.50;;;3.70;99.90;;;;;;5019338;28;20033;-67
2024/01/05 04:55:16;;;;;;;7.13;2.10;;;3.60;99.90;;;;;;5019779;28;20030;-65
2024/01/05 04:57:42;;;;;;;8.43;2.42;;;3.50;99.90;;;;;;5018763;28;20038;-67
2024/01/05 05:00:08;;;;;;;6.40;3.67;;;3.50;99.90;;;;;;5021349;28;20036;-65
2024/01/05 05:02:34;;;;;;;8.18;2.80;;;3.50;99.90;;;;;;5021508;28;20071;-65
2024/01/05 05:05:00;;;;;;;5.63;3.00;;;3.60;99.90;;;;;;5018423;28;20569;-65
2024/01/05 05:07:25;;;;;;;3.67;2.60;;;3.70;99.90;;;;;;5017367;28;20017;-66
2024/01/05 05:09:51;;;;;;;4.25;2.88;;;3.70;99.90;;;;;;5020828;28;20037;-65
2024/01/05 05:12:16;;;;;;;8.05;4.05;;;3.70;99.90;;;;;;5019434;28;20034;-66
2024/01/05 05:14:42;;;;;;;3.92;2.50;;;3.80;99.90;;;;;;5021932;28;20049;-66
2024/01/05 05:17:08;;;;;;;6.05;3.28;;;3.80;99.90;;;;;;5022332;28;20122;-66
2024/01/05 05:19:34;;;;;;;6.72;3.15;;;3.80;99.90;;;;;;5020687;28;20500;-63
2024/01/05 05:21:59;;;;;;;3.53;2.75;;;3.80;99.90;;;;;;5020688;28;20065;-65
2024/01/05 05:24:25;;;;;;;11.15;3.30;;;3.80;99.90;;;;;;5017448;28;20045;-66
2024/01/05 05:26:50;;;;;;;8.18;3.40;;;3.80;99.90;;;;;;5019099;28;20056;-68
2024/01/05 05:29:16;;;;;;;8.35;3.05;;;3.70;99.90;;;;;;5019307;28;20505;-66
2024/01/05 05:31:42;;;;;;;5.55;2.90;;;3.70;99.90;;;;;;5016976;28;20032;-66
2024/01/05 05:34:07;;;;;;;6.50;2.42;;;3.60;99.90;;;;;;5017245;28;20022;-65
2024/01/05 05:36:33;;;;;;;5.00;3.40;;;3.50;99.90;;;;;;5015650;28;20041;-66
2024/01/05 05:38:58;;;;;;;8.63;3.35;;;3.40;99.90;;;;;;5018325;28;20030;-66
2024/01/05 05:41:24;;;;;;;11.00;3.30;;;3.30;99.90;;;;;;5019415;28;20116;-65
2024/01/05 05:43:51;;;;;;;4.38;2.95;;;3.30;99.90;;;;;;5018202;28;20032;-66
2024/01/05 05:46:18;;;;;;;7.95;3.38;;;3.20;99.90;;;;;;5018434;28;20018;-65
2024/01/05 05:48:44;;;;;;;5.75;2.78;;;3.20;99.90;;;;;;5021175;28;20117;-67
2024/01/05 05:51:11;;;;;;;8.10;2.78;;;3.20;99.90;;;;;;5015213;28;20116;-67
2024/01/05 05:53:36;;;;;;;5.78;3.40;;;3.10;99.90;;;;;;5017660;28;20026;-66
2024/01/05 05:56:03;;;;;;;5.88;3.83;;;3.10;99.90;;;;;;5011982;28;20111;-66
2024/01/05 05:58:29;;;;;;;4.72;2.95;;;3.10;99.90;;;;;;5014584;28;20429;-65
2024/01/05 06:00:55;;;;;;;13.85;5.20;;;3.00;99.90;;;;;;5019266;28;20025;-66
2024/01/05 06:03:22;;;;;;;17.23;9.60;;;3.00;99.90;;;;;;5017127;28;20393;-66
2024/01/05 06:05:48;;;;;;;13.70;8.50;;;2.90;99.90;;;;;;5016658;28;20452;-66
2024/01/05 06:08:14;;;;;;;43.03;19.70;;;2.90;99.90;;;;;;5017349;28;20032;-66
2024/01/05 06:10:40;;;;;;;38.00;18.75;;;2.90;99.90;;;;;;5016304;28;20116;-66
2024/01/05 06:13:05;;;;;;;33.75;15.73;;;2.90;99.90;;;;;;5017474;28;20390;-65
2024/01/05 06:15:31;;;;;;;31.20;15.98;;;2.90;99.90;;;;;;5017422;28;20037;-65
2024/01/05 06:17:57;;;;;;;45.75;25.42;;;2.90;99.90;;;;;;5018557;28;20053;-65
2024/01/05 06:20:23;;;;;;;42.67;22.95;;;2.90;99.90;;;;;;5024613;28;20820;-65
2024/01/05 06:22:48;;;;;;;36.97;18.70;;;2.90;99.90;;;;;;5018016;28;20105;-67
2024/01/05 06:25:14;;;;;;;22.70;14.65;;;2.90;99.90;;;;;;5017224;28;20504;-65
2024/01/05 06:27:40;;;;;;;13.55;10.80;;;2.90;99.90;;;;;;5017425;28;20128;-65
2024/01/05 06:30:09;;;;;;;17.95;8.77;;;2.80;99.90;;;;;;5017996;28;20021;-66
2024/01/05 06:32:35;;;;;;;9.15;6.55;;;2.80;99.90;;;;;;5018819;28;20022;-66
2024/01/05 06:35:01;;;;;;;19.05;8.27;;;2.80;99.90;;;;;;5016740;28;20022;-66
2024/01/05 06:37:29;;;;;;;10.68;4.90;;;2.70;99.90;;;;;;5021640;28;20025;-65
2024/01/05 06:39:54;;;;;;;9.50;4.65;;;2.70;99.90;;;;;;5021079;28;20018;-62
2024/01/05 06:42:21;;;;;;;6.50;5.00;;;2.70;99.90;;;;;;5020703;28;20049;-65
2024/01/05 06:44:47;;;;;;;5.80;4.53;;;2.70;99.90;;;;;;5020264;28;20365;-64
2024/01/05 06:47:12;;;;;;;7.43;5.25;;;2.80;99.90;;;;;;5017969;28;20018;-65
2024/01/05 06:49:38;;;;;;;8.43;5.30;;;2.80;99.90;;;;;;5020639;28;20033;-65
2024/01/05 06:52:04;;;;;;;10.98;6.00;;;2.80;99.90;;;;;;5020410;28;20030;-66
2024/01/05 06:54:30;;;;;;;10.90;6.07;;;2.80;99.90;;;;;;5022014;28;20029;-65
2024/01/05 06:56:56;;;;;;;9.77;6.60;;;2.80;99.90;;;;;;5023022;28;20038;-66
2024/01/05 06:59:24;;;;;;;10.25;6.47;;;2.80;99.90;;;;;;5022696;28;20053;-67
2024/01/05 07:01:50;;;;;;;10.27;6.13;;;2.80;99.90;;;;;;5021431;28;20034;-66
2024/01/05 07:04:15;;;;;;;14.75;7.35;;;2.80;99.90;;;;;;5022636;28;20034;-67
2024/01/05 07:06:41;;;;;;;8.27;6.20;;;2.80;99.90;;;;;;5022951;28;20029;-66
2024/01/05 07:09:07;;;;;;;10.02;6.47;;;2.90;99.90;;;;;;5022216;28;20557;-65
2024/01/05 07:11:33;;;;;;;8.77;7.22;;;2.90;99.90;;;;;;5023507;28;20429;-63
2024/01/05 07:13:58;;;;;;;16.40;7.53;;;2.90;99.90;;;;;;5019361;28;20033;-67
2024/01/05 07:16:24;;;;;;;15.02;8.80;;;3.00;99.90;;;;;;5021373;28;20033;-67
2024/01/05 07:18:50;;;;;;;12.18;7.50;;;3.00;99.90;;;;;;5025508;28;20068;-66
2024/01/05 07:21:16;;;;;;;14.25;8.15;;;3.00;99.90;;;;;;5021530;28;20493;-66
2024/01/05 07:23:45;;;;;;;11.38;8.02;;;3.00;99.90;;;;;;5020177;28;20038;-67
2024/01/05 07:26:11;;;;;;;12.20;8.82;;;3.00;99.90;;;;;;5020844;28;20025;-66
2024/01/05 07:28:40;;;;;;;18.92;8.40;;;3.00;99.90;;;;;;5017996;28;20141;-64
2024/01/05 07:31:06;;;;;;;12.52;8.13;;;3.00;99.90;;;;;;5020097;28;20535;-66
2024/01/05 07:33:32;;;;;;;12.43;8.30;;;3.00;99.90;;;;;;5018990;28;20029;-66
2024/01/05 07:36:01;;;;;;;13.27;8.75;;;3.00;99.90;;;;;;5018265;28;20465;-65
2024/01/05 07:38:27;;;;;;;17.80;9.93;;;3.10;99.90;;;;;;5023014;28;20034;-65
2024/01/05 07:40:53;;;;;;;12.02;8.40;;;3.10;99.90;;;;;;5019810;28;20026;-66
2024/01/05 07:43:18;;;;;;;13.65;10.20;;;3.10;99.90;;;;;;5019002;28;20046;-68
2024/01/05 07:45:44;;;;;;;11.73;9.13;;;3.10;99.90;;;;;;5018637;28;20054;-65
2024/01/05 07:48:10;;;;;;;11.35;9.10;;;3.10;99.90;;;;;;5019668;28;20033;-66
2024/01/05 07:50:36;;;;;;;9.90;8.60;;;3.10;99.90;;;;;;5018985;28;20037;-66
2024/01/05 07:53:02;;;;;;;14.20;9.63;;;3.10;99.90;;;;;;5019822;28;20386;-65
2024/01/05 07:55:27;;;;;;;17.38;9.45;;;3.10;99.90;;;;;;5020890;28;20409;-66
2024/01/05 07:57:53;;;;;;;14.30;10.95;;;3.10;99.90;;;;;;5023844;28;20022;-65
2024/01/05 08:00:19;;;;;;;12.70;10.18;;;3.10;99.90;;;;;;5021270;28;20034;-66
2024/01/05 08:02:44;;;;;;;12.73;9.18;;;3.00;99.90;;;;;;5019554;28;20030;-65
2024/01/05 08:05:13;;;;;;;17.35;10.25;;;3.00;99.90;;;;;;5018642;28;20030;-65
2024/01/05 08:07:39;;;;;;;16.60;8.40;;;3.00;99.90;;;;;;5017936;28;20037;-65
2024/01/05 08:10:05;;;;;;;14.40;10.25;;;3.00;99.90;;;;;;5017963;28;20026;-67
2024/01/05 08:12:30;;;;;;;12.20;9.55;;;3.00;99.90;;;;;;5020327;28;20057;-66
2024/01/05 08:14:56;;;;;;;12.15;9.05;;;3.00;99.90;;;;;;5017788;28;20061;-66
2024/01/05 08:17:22;;;;;;;13.57;8.48;;;3.10;99.90;;;;;;5021871;28;20034;-66
2024/01/05 08:19:47;;;;;;;12.15;9.02;;;3.10;99.90;;;;;;5018124;28;20041;-65
2024/01/05 08:22:13;;;;;;;20.60;10.77;;;3.10;99.90;;;;;;5020830;28;20036;-65
2024/01/05 08:24:38;;;;;;;15.73;10.55;;;3.20;99.90;;;;;;5020818;28;20528;-66
2024/01/05 08:27:04;;;;;;;15.68;10.23;;;3.30;99.90;;;;;;5017691;28;20034;-67
2024/01/05 08:29:30;;;;;;;22.25;10.55;;;3.30;99.90;;;;;;5020980;28;20029;-69
2024/01/05 08:31:58;;;;;;;16.48;10.98;;;3.30;99.90;;;;;;5017069;28;20026;-65
2024/01/05 08:34:24;;;;;;;19.90;11.48;;;3.40;99.90;;;;;;5020203;28;20033;-64
2024/01/05 08:36:49;;;;;;;14.20;10.02;;;3.40;99.90;;;;;;5021512;28;20036;-68
2024/01/05 08:39:15;;;;;;;17.73;9.82;;;3.50;99.90;;;;;;5022856;28;20795;-65
2024/01/05 08:41:44;;;;;;;17.70;10.82;;;3.50;99.90;;;;;;5022212;28;20032;-66
2024/01/05 08:44:10;;;;;;;12.00;10.38;;;3.60;99.90;;;;;;5018715;28;20449;-65
2024/01/05 08:46:35;;;;;;;18.15;10.57;;;3.60;99.90;;;;;;5019240;28;20063;-66
2024/01/05 08:49:01;;;;;;;12.98;9.75;;;3.70;99.90;;;;;;5021365;28;20067;-66
2024/01/05 08:51:26;;;;;;;18.50;9.70;;;3.70;99.90;;;;;;5020177;28;20037;-65
2024/01/05 08:53:53;;;;;;;14.52;9.25;;;3.70;99.90;;;;;;5019685;28;20030;-66
2024/01/05 08:56:18;;;;;;;19.00;11.18;;;3.70;99.90;;;;;;5020697;28;20029;-67
2024/01/05 08:58:44;;;;;;;16.35;9.52;;;3.70;99.90;;;;;;5022818;28;20109;-66
2024/01/05 09:01:09;;;;;;;22.17;10.90;;;3.80;99.90;;;;;;5021515;28;20389;-65
2024/01/05 09:03:35;;;;;;;13.38;8.43;;;3.80;99.90;;;;;;5020398;28;20397;-67
2024/01/05 09:06:01;;;;;;;10.63;8.15;;;3.90;99.90;;;;;;5019556;28;20455;-65
2024/01/05 09:08:27;;;;;;;14.55;9.32;;;4.10;99.90;;;;;;5022028;28;20124;-66
2024/01/05 09:10:53;;;;;;;8.93;7.25;;;4.30;99.90;;;;;;5021177;28;20105;-65
2024/01/05 09:13:18;;;;;;;12.40;8.77;;;4.40;99.90;;;;;;5021514;28;20022;-67
2024/01/05 09:15:44;;;;;;;11.77;7.72;;;4.50;99.90;;;;;;5021157;28;20386;-66
2024/01/05 09:18:10;;;;;;;11.27;7.72;;;4.70;99.90;;;;;;5021611;28;20030;-68
2024/01/05 09:20:36;;;;;;;10.07;7.32;;;4.70;99.90;;;;;;5021271;28;20037;-66
2024/01/05 09:23:02;;;;;;;8.00;7.18;;;4.80;99.90;;;;;;5021750;28;20394;-65
2024/01/05 09:25:27;;;;;;;8.30;7.30;;;4.80;99.90;;;;;;5022328;28;20048;-65
2024/01/05 09:27:53;;;;;;;9.40;7.53;;;4.90;99.90;;;;;;5020571;28;20081;-66
2024/01/05 09:30:18;;;;;;;17.08;7.07;;;4.90;99.90;;;;;;5021165;28;20032;-66
2024/01/05 09:32:44;;;;;;;11.15;7.63;;;5.00;99.90;;;;;;5019753;28;20084;-65
2024/01/05 09:35:11;;;;;;;8.65;5.88;;;5.10;99.90;;;;;;5022318;28;20030;-64
2024/01/05 09:37:37;;;;;;;7.50;5.78;;;5.10;99.90;;;;;;5020311;28;20489;-66
2024/01/05 09:40:04;;;;;;;12.02;6.20;;;5.10;99.90;;;;;;5021688;28;20524;-65
2024/01/05 09:42:29;;;;;;;9.20;6.65;;;5.00;99.90;;;;;;5017824;28;20095;-65
2024/01/05 09:44:55;;;;;;;8.90;6.40;;;5.00;99.90;;;;;;5020340;28;20022;-66
2024/01/05 09:47:21;;;;;;;10.63;6.82;;;5.00;99.90;;;;;;5021318;28;20482;-67
2024/01/05 09:49:49;;;;;;;8.13;6.20;;;4.90;99.90;;;;;;5020432;28;20026;-66
2024/01/05 09:52:18;;;;;;;7.32;6.10;;;4.90;99.90;;;;;;5023266;28;20499;-67
2024/01/05 09:54:43;;;;;;;7.82;6.28;;;4.90;99.90;;;;;;5020402;28;20034;-68
2024/01/05 09:57:16;;;;;;;10.13;5.57;;;4.80;99.90;;;;;;5015698;28;20113;-67
2024/01/05 09:59:44;;;;;;;7.10;5.70;;;4.80;99.90;;;;;;5020099;28;20153;-65
2024/01/05 10:02:15;;;;;;;7.07;5.80;;;4.80;99.90;;;;;;5020244;28;20557;-67
2024/01/05 10:04:41;;;;;;;10.80;6.20;;;4.80;99.90;;;;;;5018757;28;20482;-66
2024/01/05 10:07:08;;;;;;;10.50;6.35;;;4.90;99.90;;;;;;5021444;28;20072;-67
2024/01/05 10:09:51;;;;;;;6.28;5.57;;;4.90;99.90;;;;;;5021214;28;20038;-67
2024/01/05 10:12:20;;;;;;;8.80;6.22;;;5.00;99.90;;;;;;5024264;28;20566;-65
2024/01/05 10:14:47;;;;;;;8.68;5.53;;;5.10;99.90;;;;;;5024075;28;20106;-66
2024/01/05 10:17:13;;;;;;;11.60;6.20;;;5.20;99.90;;;;;;5023261;28;20045;-66
2024/01/05 10:19:41;;;;;;;6.38;5.78;;;5.30;99.90;;;;;;5024029;28;20452;-64
2024/01/05 10:22:11;;;;;;;7.88;5.35;;;5.70;99.90;;;;;;5025381;28;20281;-65
2024/01/05 10:24:38;;;;;;;8.38;5.43;;;6.20;99.90;;;;;;5022653;28;20112;-65
2024/01/05 10:27:13;;;;;;;7.97;4.40;;;6.60;99.90;;;;;;5022165;28;20030;-65
2024/01/05 10:29:44;;;;;;;6.30;4.63;;;6.60;99.90;;;;;;5022454;28;20033;-65
2024/01/05 10:32:18;;;;;;;4.95;4.47;;;6.40;99.90;;;;;;5023107;28;20080;-65
2024/01/05 10:34:51;;;;;;;6.10;4.70;;;6.40;99.90;;;;;;5024775;28;20037;-67
2024/01/05 10:37:19;;;;;;;5.30;4.00;;;6.40;99.90;;;;;;5024110;28;20029;-65
2024/01/05 10:39:46;;;;;;;10.85;4.82;;;6.40;99.90;;;;;;5022979;28;20585;-66
2024/01/05 10:42:21;;;;;;;4.90;4.43;;;6.30;99.90;;;;;;5024812;28;20401;-65
2024/01/05 10:44:51;;;;;;;4.78;3.75;;;6.30;99.90;;;;;;5024712;28;20097;-66
2024/01/05 10:47:18;;;;;;;5.97;4.28;;;6.30;99.90;;;;;;5025651;28;20030;-67
2024/01/05 10:49:49;;;;;;;8.68;4.97;;;6.10;99.90;;;;;;5021070;28;20034;-65
2024/01/05 10:52:16;;;;;;;6.22;5.20;;;6.00;99.90;;;;;;5022313;28;20021;-64
2024/01/05 10:54:47;;;;;;;9.52;5.03;;;5.90;99.90;;;;;;5025709;28;20037;-65
2024/01/05 10:57:15;;;;;;;7.22;4.80;;;5.80;99.90;;;;;;5024071;28;20056;-66
2024/01/05 10:59:48;;;;;;;4.30;3.88;;;5.80;99.90;;;;;;5024184;28;20041;-64
2024/01/05 11:02:22;;;;;;;6.85;4.72;;;5.80;99.90;;;;;;5022673;28;20037;-65
2024/01/05 11:05:13;;;;;;;4.43;3.80;;;5.80;99.90;;;;;;5021765;28;20033;-67
2024/01/05 11:07:40;;;;;;;5.97;4.35;;;5.80;99.90;;;;;;5022409;28;20485;-66
2024/01/05 11:10:23;;;;;;;6.10;4.93;;;5.80;99.90;;;;;;5022066;28;20021;-67
2024/01/05 11:12:52;;;;;;;6.15;4.68;;;5.90;99.90;;;;;;5020666;28;20080;-67
2024/01/05 11:15:49;;;;;;;6.22;4.65;;;6.00;99.90;;;;;;5023799;28;20115;-67
2024/01/05 11:18:29;;;;;;;7.07;4.55;;;6.00;99.90;;;;;;5027734;28;20030;-65
2024/01/05 11:21:02;;;;;;;8.43;5.93;;;6.10;99.90;;;;;;5021593;28;20080;-66
2024/01/05 11:23:30;;;;;;;7.38;4.85;;;6.10;99.90;;;;;;5020915;28;20022;-66
2024/01/05 11:25:56;;;;;;;6.78;4.30;;;6.30;99.90;;;;;;5021164;28;20037;-66
2024/01/05 11:28:35;;;;;;;5.68;3.95;;;6.40;99.90;;;;;;5021504;28;20030;-67
2024/01/05 11:31:01;;;;;;;6.60;3.65;;;6.50;99.90;;;;;;5018158;28;20034;-66
2024/01/05 11:33:43;;;;;;;3.92;3.53;;;6.70;99.90;;;;;;5019671;28;20036;-66
2024/01/05 11:36:08;;;;;;;7.82;3.88;;;6.90;99.90;;;;;;5020058;28;20037;-67
2024/01/05 11:38:34;;;;;;;4.97;3.50;;;7.10;99.90;;;;;;5020710;28;20033;-67
2024/01/05 11:41:14;;;;;;;6.95;5.03;;;7.30;99.90;;;;;;5019413;28;20022;-65
2024/01/05 11:43:40;;;;;;;3.42;2.88;;;7.40;99.90;;;;;;5018281;28;20029;-65
2024/01/05 11:46:06;;;;;;;5.95;3.35;;;7.60;99.90;;;;;;5022455;28;20017;-65
2024/01/05 11:48:34;;;;;;;4.20;3.22;;;7.90;99.90;;;;;;5020110;28;20051;-66
2024/01/05 11:51:05;;;;;;;3.78;3.15;;;8.00;99.90;;;;;;5021653;28;20026;-66
2024/01/05 11:53:31;;;;;;;;;;;8.10;99.90;;;;;;5022019;28;20116;-65
2024/01/05 11:55:58;;;;;;;3.85;2.63;;;8.10;99.90;;;;;;5023343;28;20000;-67
2024/01/05 11:58:27;;;;;;;5.05;2.47;;;8.00;99.90;;;;;;5021983;28;20026;-63
2024/01/05 12:00:55;;;;;;;4.05;2.33;;;7.90;99.90;;;;;;5021983;28;20076;-65
2024/01/05 12:03:23;;;;;;;5.30;3.08;;;7.70;99.90;;;;;;5022913;28;20029;-66
2024/01/05 12:05:55;;;;;;;3.67;2.22;;;7.70;99.90;;;;;;5022128;28;20048;-65
2024/01/05 12:08:24;;;;;;;8.80;4.00;;;7.60;99.90;;;;;;5020865;28;20367;-64
2024/01/05 12:10:55;;;;;;;5.43;2.17;;;7.60;99.90;;;;;;5020423;28;20117;-66
2024/01/05 12:13:22;;;;;;;;;;;7.40;99.90;;;;;;5023589;28;20040;-64
2024/01/05 12:15:52;;;;;;;5.10;1.95;;;7.40;99.90;;;;;;5022753;28;20377;-66
2024/01/05 12:18:18;;;;;;;3.88;1.90;;;7.40;99.90;;;;;;5024894;28;20038;-67
2024/01/05 12:20:44;;;;;;;3.15;1.80;;;7.30;99.90;;;;;;5022183;28;20099;-65
2024/01/05 12:23:12;;;;;;;2.45;1.63;;;7.30;99.90;;;;;;5022358;28;20030;-66
2024/01/05 12:25:39;;;;;;;1.35;1.25;;;7.30;99.90;;;;;;5019307;28;20022;-66
2024/01/05 12:28:05;;;;;;;2.80;1.55;;;7.30;99.90;;;;;;5023427;28;20589;-64
2024/01/05 12:30:31;;;;;;;1.70;1.10;;;7.30;99.90;;;;;;5021321;28;20057;-65
2024/01/05 12:32:56;;;;;;;1.88;1.40;;;7.30;99.90;;;;;;5019604;28;20045;-66
2024/01/05 12:35:22;;;;;;;2.45;1.73;;;7.20;99.90;;;;;;5020752;28;20382;-65
2024/01/05 12:37:54;;;;;;;4.25;2.35;;;7.20;99.90;;;;;;5017082;28;20105;-66
2024/01/05 12:40:24;;;;;;;5.75;1.95;;;7.20;99.90;;;;;;5020576;28;20483;-67
2024/01/05 12:42:53;;;;;;;3.08;2.28;;;7.10;99.90;;;;;;5015229;28;20095;-65
2024/01/05 12:45:22;;;;;;;3.47;2.08;;;7.10;99.90;;;;;;5019153;28;20403;-66
2024/01/05 12:47:49;;;;;;;4.60;2.15;;;7.10;99.90;;;;;;5019579;28;20548;-67
2024/01/05 12:50:28;;;;;;;3.15;2.22;;;7.10;99.90;;;;;;5020845;28;20029;-65